Forside
METAR-TAF:

METAR-TAF

Lufthavne :

Malmö Airport

Malmø, Sverige

Breddekreds: 55-33N, længdekreds: 013-22E, højde: 106 m

Aktuelle vejr

Denne rapport blev lavet for 42 minutter siden, kl. 01:20 UTC
Vind 4 kt fra nordnordvest
Temperatur 12°C
Fugtighed 94%
Tryk 1009 hPa
Sigt 10 km eller mere
ingen skyer under 1500m og ingen cumulonimbus

METAR: ESMS 220120Z 34004KT CAVOK 12/11 Q1009

Tid: 04:02 (02:02 UTC)

Vejrudsigter

Denne rapport blev lavet for 2 timer og 48 minutter siden, kl. 23:14 UTC
Foreløbig gælder fra 22 på 00 UTC til 22 på 24 UTC
Vind 8 kt fra nordvest
Sigt 10 km eller mere
Nogle få skyer i en højde af 3000 ft

TAF: ESMS 212314Z 2200/2224 32008KT 9999 FEW030

Vejrobservationer og prognoser fra mere end 4000 lufthavne (METAR og TAF).

De gule og røde prikker repræsenterer de meteorologiske stationer.

Flyt musen over at se navnet på stationen.

Så klik over at se vejr observationer og prognoser.

At skifte det kort: Klik på de grønne knapper med et sort kors for at zoome ind; på den grønne knap med en bindestreg for at zoome ud; eller på de grønne pile for tilstødende kort.


METAR-TAF: